Time;durP1;ratioP1;P1;durP2;ratioP2;P2;SDS_P1;SDS_P2;PMS_P1;PMS_P2;Temp;Humidity;BMP_temperature;BMP_pressure;BME280_temperature;BME280_humidity;BME280_pressure;Samples;Min_cycle;Max_cycle;Signal;HPM_P1;HPM_P2
2022/03/03 00:01:30;;;;;;;24.02;2.03;;;21.80;99.90;;;;;;5096049;28;20188;-81
2022/03/03 00:04:01;;;;;;;16.48;2.10;;;21.90;99.90;;;;;;5095956;28;20188;-79
2022/03/03 00:06:34;;;;;;;24.42;2.15;;;21.90;99.90;;;;;;5096019;28;20193;-77
2022/03/03 00:09:05;;;;;;;20.00;2.28;;;21.90;99.90;;;;;;5095687;28;20192;-78
2022/03/03 00:11:36;;;;;;;23.92;2.45;;;22.00;99.90;;;;;;5095821;28;20644;-77
2022/03/03 00:14:07;;;;;;;19.02;2.60;;;21.90;99.90;;;;;;5095730;28;20184;-79
2022/03/03 00:16:38;;;;;;;30.77;2.75;;;21.90;99.90;;;;;;5095634;28;20638;-78
2022/03/03 00:19:08;;;;;;;25.55;2.70;;;21.90;99.90;;;;;;5095410;28;20196;-78
2022/03/03 00:21:41;;;;;;;22.80;3.45;;;22.00;99.90;;;;;;5095581;28;20192;-78
2022/03/03 00:24:12;;;;;;;29.85;3.45;;;22.10;99.90;;;;;;5095515;28;20242;-80
2022/03/03 00:26:42;;;;;;;25.25;3.47;;;22.10;99.90;;;;;;5095562;28;20640;-77
2022/03/03 00:29:13;;;;;;;28.58;2.80;;;22.10;99.90;;;;;;5095333;28;20196;-82
2022/03/03 00:31:44;;;;;;;14.52;2.22;;;22.10;99.90;;;;;;5095355;28;20223;-78
2022/03/03 00:34:15;;;;;;;18.60;3.00;;;22.20;99.90;;;;;;5094946;28;20211;-80
2022/03/03 00:36:48;;;;;;;21.65;2.60;;;22.20;99.90;;;;;;5095075;28;20281;-78
2022/03/03 00:39:18;;;;;;;16.05;2.42;;;22.20;99.90;;;;;;5095200;28;20659;-77
2022/03/03 00:41:49;;;;;;;19.80;2.60;;;22.10;99.90;;;;;;5094804;28;20192;-78
2022/03/03 00:44:20;;;;;;;27.52;3.13;;;22.00;99.90;;;;;;5094567;28;20242;-77
2022/03/03 00:46:50;;;;;;;17.15;3.28;;;22.10;99.90;;;;;;5094812;28;20188;-80
2022/03/03 00:49:23;;;;;;;20.50;2.42;;;22.20;99.90;;;;;;5095149;28;20636;-80
2022/03/03 00:51:56;;;;;;;16.83;2.05;;;22.30;99.90;;;;;;5094978;28;20188;-77
2022/03/03 00:54:26;;;;;;;12.70;1.98;;;22.30;99.90;;;;;;5094932;28;20537;-81
2022/03/03 00:56:57;;;;;;;18.85;2.20;;;22.30;99.90;;;;;;5094611;28;20199;-80
2022/03/03 00:59:28;;;;;;;13.35;1.85;;;22.40;99.90;;;;;;5094854;28;20202;-78
2022/03/03 01:01:59;;;;;;;16.55;1.75;;;22.50;99.90;;;;;;5094352;28;20188;-81
2022/03/03 01:04:29;;;;;;;15.98;2.13;;;22.50;99.90;;;;;;5094678;28;20188;-77
2022/03/03 01:07:02;;;;;;;19.50;3.15;;;22.50;99.90;;;;;;5094538;28;20184;-80
2022/03/03 01:09:32;;;;;;;18.98;2.50;;;22.70;99.90;;;;;;5094576;28;20250;-76
2022/03/03 01:12:03;;;;;;;15.80;2.33;;;22.90;99.90;;;;;;5094584;28;20188;-77
2022/03/03 01:14:34;;;;;;;14.23;1.80;;;22.90;99.90;;;;;;5094592;28;20188;-77
2022/03/03 01:17:05;;;;;;;11.18;1.40;;;22.90;99.90;;;;;;5094041;28;20580;-81
2022/03/03 01:19:35;;;;;;;12.02;1.45;;;22.60;99.90;;;;;;5094452;28;20192;-81
2022/03/03 01:22:08;;;;;;;12.52;1.73;;;22.50;99.90;;;;;;5094282;28;20192;-77
2022/03/03 01:24:39;;;;;;;10.40;1.70;;;22.60;99.90;;;;;;5094371;28;20196;-79
2022/03/03 01:27:09;;;;;;;9.63;1.55;;;22.70;99.90;;;;;;5094436;28;20609;-82
2022/03/03 01:29:40;;;;;;;12.38;1.60;;;22.70;99.90;;;;;;5094014;28;20212;-82
2022/03/03 01:32:11;;;;;;;11.85;1.80;;;22.80;99.90;;;;;;5093973;28;20192;-76
2022/03/03 01:34:42;;;;;;;10.95;1.25;;;22.80;99.90;;;;;;5093358;28;20187;-80
2022/03/03 01:37:14;;;;;;;9.60;1.58;;;22.90;99.90;;;;;;5093732;28;20598;-81
2022/03/03 01:39:45;;;;;;;9.70;1.42;;;23.00;99.90;;;;;;5093961;28;20192;-79
2022/03/03 01:42:17;;;;;;;8.80;1.50;;;23.00;99.90;;;;;;5094113;28;20193;-79
2022/03/03 01:44:49;;;;;;;9.73;1.60;;;23.10;99.90;;;;;;5093717;28;20189;-79
2022/03/03 01:47:21;;;;;;;7.70;1.50;;;23.20;99.90;;;;;;5093920;28;20188;-79
2022/03/03 01:49:52;;;;;;;9.60;1.60;;;23.20;99.90;;;;;;5093930;28;20199;-79
2022/03/03 01:52:25;;;;;;;11.65;1.40;;;23.30;99.90;;;;;;5093796;28;20203;-81
2022/03/03 01:54:56;;;;;;;11.43;1.90;;;23.40;99.90;;;;;;5093348;28;20279;-79
2022/03/03 01:57:27;;;;;;;10.73;1.63;;;23.40;99.90;;;;;;5091815;28;20204;-79
2022/03/03 01:59:58;;;;;;;7.35;1.40;;;23.40;99.90;;;;;;5084485;28;20201;-80
2022/03/03 02:02:30;;;;;;;10.88;1.95;;;23.40;99.90;;;;;;5089498;28;20200;-83
2022/03/03 02:05:00;;;;;;;9.52;1.80;;;23.40;99.90;;;;;;5091034;28;20196;-79
2022/03/03 02:07:33;;;;;;;12.82;2.25;;;23.40;99.90;;;;;;5073526;28;20185;-79
2022/03/03 02:10:05;;;;;;;10.73;2.00;;;23.50;99.90;;;;;;5077109;28;20192;-79
2022/03/03 02:12:36;;;;;;;13.13;2.22;;;23.70;99.90;;;;;;5087722;28;20200;-79
2022/03/03 02:15:08;;;;;;;8.73;1.98;;;24.10;99.90;;;;;;5091676;28;20212;-76
2022/03/03 02:17:38;;;;;;;13.55;1.90;;;24.30;99.90;;;;;;5091377;28;20684;-78
2022/03/03 02:20:21;;;;;;;12.95;2.08;;;24.40;99.90;;;;;;5090164;28;20663;-82
2022/03/03 02:22:52;;;;;;;12.32;1.52;;;24.40;99.90;;;;;;5073339;28;20651;-83
2022/03/03 02:25:23;;;;;;;8.70;1.52;;;24.30;99.90;;;;;;5077514;28;20207;-80
2022/03/03 02:27:54;;;;;;;10.00;1.40;;;24.20;99.90;;;;;;5091217;28;20207;-83
2022/03/03 02:30:25;;;;;;;12.55;1.60;;;24.10;99.90;;;;;;5086772;28;20246;-79
2022/03/03 02:32:56;;;;;;;11.18;1.77;;;24.20;99.90;;;;;;5082860;28;20627;-80
2022/03/03 02:35:29;;;;;;;10.50;1.75;;;24.20;99.90;;;;;;5093251;28;20239;-81
2022/03/03 02:37:59;;;;;;;9.38;1.45;;;24.20;99.90;;;;;;5093222;28;20192;-78
2022/03/03 02:40:30;;;;;;;10.80;1.67;;;24.10;99.90;;;;;;5093345;28;20192;-76
2022/03/03 02:43:01;;;;;;;12.80;1.63;;;24.10;99.90;;;;;;5092966;28;20199;-76
2022/03/03 02:45:31;;;;;;;10.68;1.70;;;24.00;99.90;;;;;;5093234;28;20188;-77
2022/03/03 02:48:02;;;;;;;10.93;1.65;;;24.00;99.90;;;;;;5093250;28;20527;-76
2022/03/03 02:50:34;;;;;;;9.90;1.77;;;23.90;99.90;;;;;;5093189;28;20180;-76
2022/03/03 02:53:05;;;;;;;10.75;2.08;;;23.80;99.90;;;;;;5093164;28;20188;-76
2022/03/03 02:55:36;;;;;;;12.02;1.80;;;23.80;99.90;;;;;;5092889;28;20220;-83
2022/03/03 02:58:07;;;;;;;9.77;1.90;;;23.80;99.90;;;;;;5092919;28;20203;-75
2022/03/03 03:00:43;;;;;;;13.32;2.10;;;23.80;99.90;;;;;;5092987;28;20192;-75
2022/03/03 03:03:14;;;;;;;10.77;1.88;;;23.70;99.90;;;;;;5092983;28;20195;-78
2022/03/03 03:05:46;;;;;;;12.40;1.70;;;23.40;99.90;;;;;;5093214;28;20184;-77
2022/03/03 03:08:18;;;;;;;8.60;1.75;;;23.30;99.90;;;;;;5097085;28;20261;-80
2022/03/03 03:10:48;;;;;;;12.20;2.03;;;23.20;99.90;;;;;;5096991;28;20587;-77
2022/03/03 03:13:19;;;;;;;14.95;2.10;;;23.10;99.90;;;;;;5096918;28;20655;-79
2022/03/03 03:15:50;;;;;;;12.98;2.40;;;23.10;99.90;;;;;;5096702;28;20220;-78
2022/03/03 03:18:21;;;;;;;12.20;1.83;;;23.20;99.90;;;;;;5096818;28;20192;-75
2022/03/03 03:20:55;;;;;;;10.43;2.17;;;23.10;99.90;;;;;;5096804;28;20199;-77
2022/03/03 03:23:26;;;;;;;14.48;2.00;;;23.10;99.90;;;;;;5096896;28;20192;-77
2022/03/03 03:25:57;;;;;;;15.43;1.90;;;23.00;99.90;;;;;;5096266;28;20204;-77
2022/03/03 03:28:28;;;;;;;17.88;2.15;;;23.00;99.90;;;;;;5096584;28;20189;-76
2022/03/03 03:30:58;;;;;;;17.50;1.98;;;23.10;99.90;;;;;;5096421;28;20551;-76
2022/03/03 03:33:29;;;;;;;17.05;2.00;;;23.20;99.90;;;;;;5096142;28;20711;-75
2022/03/03 03:36:01;;;;;;;15.07;3.00;;;23.20;99.90;;;;;;5095823;28;20238;-76
2022/03/03 03:38:32;;;;;;;12.38;1.85;;;23.20;99.90;;;;;;5096333;28;20238;-76
2022/03/03 03:41:03;;;;;;;13.52;1.80;;;23.20;99.90;;;;;;5096130;28;20241;-75
2022/03/03 03:43:34;;;;;;;12.95;2.17;;;23.20;99.90;;;;;;5096473;28;20192;-75
2022/03/03 03:46:04;;;;;;;15.95;1.98;;;23.20;99.90;;;;;;5096240;28;20245;-78
2022/03/03 03:48:35;;;;;;;15.68;2.17;;;23.30;99.90;;;;;;5096187;28;20192;-74
2022/03/03 03:51:07;;;;;;;12.43;2.00;;;23.40;99.90;;;;;;5096090;28;20189;-79
2022/03/03 03:53:38;;;;;;;16.25;2.20;;;23.40;99.90;;;;;;5096031;28;20246;-76
2022/03/03 03:56:09;;;;;;;15.65;2.35;;;23.40;99.90;;;;;;5095698;28;20269;-78
2022/03/03 03:58:40;;;;;;;16.67;2.72;;;23.50;99.90;;;;;;5095993;28;20524;-75
2022/03/03 04:01:10;;;;;;;14.80;2.22;;;23.60;99.90;;;;;;5095941;28;20192;-75
2022/03/03 04:03:41;;;;;;;14.52;2.78;;;23.70;99.90;;;;;;5095726;28;20192;-76
2022/03/03 04:06:14;;;;;;;9.77;1.40;;;23.80;99.90;;;;;;5095891;28;20189;-79
2022/03/03 04:08:44;;;;;;;8.20;1.58;;;23.90;99.90;;;;;;5095708;28;20193;-77
2022/03/03 04:11:15;;;;;;;9.27;1.50;;;23.80;99.90;;;;;;5095288;28;20191;-77
2022/03/03 04:13:45;;;;;;;12.95;1.83;;;23.70;99.90;;;;;;5095492;28;20254;-77
2022/03/03 04:16:16;;;;;;;13.63;2.08;;;23.70;99.90;;;;;;5095413;28;20636;-79
2022/03/03 04:18:47;;;;;;;13.45;2.17;;;23.90;99.90;;;;;;5095386;28;20195;-77
2022/03/03 04:21:19;;;;;;;11.98;1.98;;;23.90;99.90;;;;;;5095555;28;20731;-76
2022/03/03 04:23:50;;;;;;;14.82;2.10;;;23.80;99.90;;;;;;5095188;28;20192;-81
2022/03/03 04:26:21;;;;;;;9.68;1.83;;;23.70;99.90;;;;;;5095536;28;20188;-77
2022/03/03 04:28:51;;;;;;;8.13;1.73;;;23.60;99.90;;;;;;5095318;28;20620;-78
2022/03/03 04:31:22;;;;;;;13.20;2.50;;;23.40;99.90;;;;;;5095291;28;20569;-77
2022/03/03 04:33:53;;;;;;;11.18;2.03;;;23.40;99.90;;;;;;5094761;28;20223;-75
2022/03/03 04:36:25;;;;;;;16.00;2.70;;;23.40;99.90;;;;;;5094930;28;20240;-77
2022/03/03 04:38:56;;;;;;;15.80;2.70;;;23.40;99.90;;;;;;5095042;28;20188;-77
2022/03/03 04:41:27;;;;;;;9.60;1.60;;;23.40;99.90;;;;;;5095123;28;20188;-75
2022/03/03 04:43:57;;;;;;;10.98;1.95;;;23.40;99.90;;;;;;5095022;28;20237;-77
2022/03/03 04:46:28;;;;;;;12.27;2.03;;;23.40;99.90;;;;;;5095105;28;20337;-75
2022/03/03 04:48:59;;;;;;;15.70;2.67;;;23.50;99.90;;;;;;5094368;28;20184;-77
2022/03/03 04:51:36;;;;;;;17.38;2.30;;;23.70;99.90;;;;;;5084185;28;20196;-77
2022/03/03 04:54:08;;;;;;;18.02;2.78;;;23.90;99.90;;;;;;5094769;28;20220;-77
2022/03/03 04:56:40;;;;;;;19.02;2.70;;;24.00;99.90;;;;;;5094022;28;20211;-75
2022/03/03 04:59:10;;;;;;;15.43;2.95;;;24.00;99.90;;;;;;5094582;28;20196;-75
2022/03/03 05:01:41;;;;;;;16.40;2.40;;;24.10;99.90;;;;;;5094482;28;20189;-75
2022/03/03 05:04:12;;;;;;;14.65;2.67;;;24.00;99.90;;;;;;5094753;28;20195;-76
2022/03/03 05:06:44;;;;;;;15.25;2.60;;;24.00;99.90;;;;;;5094342;28;20261;-77
2022/03/03 05:09:15;;;;;;;16.30;2.88;;;24.10;99.90;;;;;;5094300;28;20192;-77
2022/03/03 05:11:46;;;;;;;18.50;2.70;;;24.10;99.90;;;;;;5093815;28;20184;-76
2022/03/03 05:14:17;;;;;;;18.98;2.78;;;24.20;99.90;;;;;;5094147;28;20188;-76
2022/03/03 05:16:47;;;;;;;16.70;2.47;;;24.30;99.90;;;;;;5093819;28;20205;-76
2022/03/03 05:19:18;;;;;;;16.27;2.30;;;24.40;99.90;;;;;;5094051;28;20250;-78
2022/03/03 05:21:51;;;;;;;21.83;3.13;;;24.50;99.90;;;;;;5093787;28;20200;-75
2022/03/03 05:24:21;;;;;;;20.30;2.97;;;24.50;99.90;;;;;;5093729;28;20192;-76
2022/03/03 05:26:52;;;;;;;19.77;2.95;;;24.30;99.90;;;;;;5092929;28;20200;-77
2022/03/03 05:29:23;;;;;;;21.10;3.33;;;24.20;99.90;;;;;;5092928;28;20551;-76
2022/03/03 05:31:54;;;;;;;21.00;2.75;;;24.10;99.90;;;;;;5093415;28;21186;-77
2022/03/03 05:34:24;;;;;;;14.05;2.80;;;24.00;99.90;;;;;;5093940;28;20189;-75
2022/03/03 05:36:57;;;;;;;20.73;3.33;;;23.90;99.90;;;;;;5092830;28;20231;-76
2022/03/03 05:39:29;;;;;;;23.70;3.55;;;23.70;99.90;;;;;;5093932;28;20588;-80
2022/03/03 05:42:00;;;;;;;18.92;3.65;;;23.70;99.90;;;;;;5093575;28;20184;-77
2022/03/03 05:44:32;;;;;;;30.13;4.20;;;23.60;99.90;;;;;;5093757;28;20192;-77
2022/03/03 05:47:03;;;;;;;21.02;3.13;;;23.60;99.90;;;;;;5090382;28;20181;-76
2022/03/03 05:49:35;;;;;;;15.73;2.50;;;23.40;99.90;;;;;;5093149;28;20237;-76
2022/03/03 05:52:09;;;;;;;17.25;2.45;;;23.30;99.90;;;;;;5093378;28;20224;-78
2022/03/03 05:54:40;;;;;;;19.23;2.80;;;23.30;99.90;;;;;;5093579;28;20195;-78
2022/03/03 05:57:19;;;;;;;21.70;3.13;;;23.30;99.90;;;;;;5093243;28;20216;-80
2022/03/03 05:59:53;;;;;;;20.25;3.33;;;23.30;99.90;;;;;;5092805;28;20233;-79
2022/03/03 06:02:24;;;;;;;23.42;3.50;;;23.20;99.90;;;;;;5093382;28;20184;-78
2022/03/03 06:04:55;;;;;;;22.60;3.10;;;23.20;99.90;;;;;;5093317;28;20180;-80
2022/03/03 06:07:31;;;;;;;19.88;2.95;;;23.20;99.90;;;;;;5093576;28;20223;-80
2022/03/03 06:10:06;;;;;;;20.65;3.25;;;23.10;99.90;;;;;;5090229;28;20215;-78
2022/03/03 06:12:43;;;;;;;20.83;3.15;;;23.10;99.90;;;;;;5092900;28;20188;-81
2022/03/03 06:15:16;;;;;;;19.98;3.22;;;23.10;99.90;;;;;;5092791;28;20249;-80
2022/03/03 06:17:47;;;;;;;23.40;3.85;;;23.20;99.90;;;;;;5092680;28;20216;-79
2022/03/03 06:20:20;;;;;;;23.90;3.80;;;23.30;99.90;;;;;;5093277;28;20188;-83
2022/03/03 06:22:52;;;;;;;23.80;2.88;;;23.30;99.90;;;;;;5093474;28;20276;-78
2022/03/03 06:25:23;;;;;;;23.25;3.70;;;23.30;99.90;;;;;;5092985;28;20199;-81
2022/03/03 06:27:54;;;;;;;30.70;4.47;;;23.40;99.90;;;;;;5093202;28;20218;-79
2022/03/03 06:30:25;;;;;;;29.20;4.45;;;23.60;99.90;;;;;;5092678;28;20184;-77
2022/03/03 06:32:55;;;;;;;32.60;4.72;;;23.60;99.90;;;;;;5092438;28;20268;-77
2022/03/03 06:35:26;;;;;;;23.92;4.05;;;23.70;99.90;;;;;;5081388;28;20364;-80
2022/03/03 06:37:59;;;;;;;16.42;2.78;;;23.70;99.90;;;;;;5093060;28;20269;-77
2022/03/03 06:40:29;;;;;;;23.55;3.30;;;23.70;99.90;;;;;;5094225;28;20203;-79
2022/03/03 06:43:01;;;;;;;21.00;3.28;;;23.60;99.90;;;;;;5093858;28;20195;-80
2022/03/03 06:45:32;;;;;;;26.67;3.83;;;23.50;99.90;;;;;;5096669;28;20267;-78
2022/03/03 06:48:04;;;;;;;27.08;3.92;;;23.40;99.90;;;;;;5093808;28;20640;-77
2022/03/03 06:50:38;;;;;;;24.42;4.75;;;23.40;99.90;;;;;;5096419;28;20249;-78
2022/03/03 06:53:11;;;;;;;28.02;4.05;;;23.40;99.90;;;;;;5097020;28;20636;-78
2022/03/03 06:55:42;;;;;;;28.98;5.18;;;23.50;99.90;;;;;;5096719;28;20517;-77
2022/03/03 06:58:15;;;;;;;26.83;4.40;;;23.60;99.90;;;;;;5096462;28;20215;-79
2022/03/03 07:00:53;;;;;;;25.77;3.35;;;23.70;99.90;;;;;;5097040;28;20196;-77
2022/03/03 07:03:26;;;;;;;18.38;3.25;;;23.70;99.90;;;;;;5096104;28;20184;-77
2022/03/03 07:05:58;;;;;;;13.98;3.10;;;23.80;99.90;;;;;;5095984;28;20188;-78
2022/03/03 07:08:30;;;;;;;17.88;2.70;;;23.80;99.90;;;;;;5085807;28;20189;-79
2022/03/03 07:11:01;;;;;;;29.30;3.92;;;23.70;99.90;;;;;;5096903;28;20531;-78
2022/03/03 07:13:32;;;;;;;23.27;3.45;;;23.70;99.90;;;;;;5096385;28;20238;-77
2022/03/03 07:16:19;;;;;;;22.00;3.63;;;23.60;99.90;;;;;;5093206;28;20188;-80
2022/03/03 07:18:53;;;;;;;21.23;3.47;;;23.60;99.90;;;;;;5095871;28;20668;-77
2022/03/03 07:21:34;;;;;;;19.48;3.30;;;23.70;99.90;;;;;;5096206;28;20216;-77
2022/03/03 07:24:18;;;;;;;17.55;3.15;;;23.60;99.90;;;;;;5096826;28;20643;-80
2022/03/03 07:26:50;;;;;;;22.73;3.33;;;23.40;99.90;;;;;;5096481;28;20196;-79
2022/03/03 07:29:25;;;;;;;20.33;3.47;;;23.20;99.90;;;;;;5096434;28;20203;-80
2022/03/03 07:31:58;;;;;;;25.75;4.13;;;23.10;99.90;;;;;;5094997;28;20219;-79
2022/03/03 07:34:31;;;;;;;20.13;3.30;;;23.00;99.90;;;;;;5095970;28;20663;-79
2022/03/03 07:37:07;;;;;;;20.77;3.72;;;22.90;99.90;;;;;;5095735;28;20641;-79
2022/03/03 07:39:43;;;;;;;26.05;3.33;;;22.90;99.90;;;;;;5095629;28;20188;-78
2022/03/03 07:42:17;;;;;;;23.95;3.47;;;22.80;99.90;;;;;;5095958;28;20196;-78
2022/03/03 07:44:48;;;;;;;23.38;2.75;;;22.80;99.90;;;;;;5096100;28;20184;-76
2022/03/03 07:47:20;;;;;;;20.17;2.95;;;22.80;99.90;;;;;;5095889;28;20253;-81
2022/03/03 07:49:50;;;;;;;19.63;3.10;;;22.70;99.90;;;;;;5095956;28;20188;-77
2022/03/03 07:52:23;;;;;;;20.83;3.20;;;22.70;99.90;;;;;;5094810;28;20353;-81
2022/03/03 07:54:55;;;;;;;17.45;3.60;;;22.70;99.90;;;;;;5095973;28;20655;-80
2022/03/03 07:57:28;;;;;;;20.48;3.03;;;22.60;99.90;;;;;;5095782;28;20208;-81
2022/03/03 08:00:04;;;;;;;21.63;3.22;;;22.60;99.90;;;;;;5095962;28;20196;-82
2022/03/03 08:02:36;;;;;;;22.58;3.42;;;22.60;99.90;;;;;;5095297;28;20225;-78
2022/03/03 08:05:08;;;;;;;22.15;3.53;;;22.60;99.90;;;;;;5096031;28;20195;-79
2022/03/03 08:07:43;;;;;;;26.77;3.58;;;22.50;99.90;;;;;;5095207;28;20199;-77
2022/03/03 08:10:17;;;;;;;22.85;3.85;;;22.50;99.90;;;;;;5095498;28;20237;-79
2022/03/03 08:12:53;;;;;;;22.20;3.50;;;22.50;99.90;;;;;;5095408;28;20179;-80
2022/03/03 08:15:24;;;;;;;16.73;3.30;;;22.60;99.90;;;;;;5094786;28;20184;-79
2022/03/03 08:17:56;;;;;;;18.88;3.50;;;22.60;99.90;;;;;;5094670;28;20204;-79
2022/03/03 08:20:26;;;;;;;20.33;3.65;;;22.60;99.90;;;;;;5095427;28;20189;-77
2022/03/03 08:22:59;;;;;;;20.95;3.80;;;22.60;99.90;;;;;;5095294;28;20188;-79
2022/03/03 08:25:32;;;;;;;19.58;3.50;;;22.60;99.90;;;;;;5084497;28;20711;-77
2022/03/03 08:28:03;;;;;;;16.85;2.92;;;22.60;99.90;;;;;;5091576;28;20211;-79
2022/03/03 08:30:34;;;;;;;14.80;2.90;;;22.60;99.90;;;;;;5094894;28;20547;-76
2022/03/03 08:33:10;;;;;;;20.17;3.47;;;22.50;99.90;;;;;;5094777;28;20262;-81
2022/03/03 08:35:44;;;;;;;21.65;3.60;;;22.50;99.90;;;;;;5094713;28;20703;-80
2022/03/03 08:38:24;;;;;;;16.30;3.40;;;22.50;99.90;;;;;;5094850;28;20583;-82
2022/03/03 08:40:59;;;;;;;21.15;3.33;;;22.40;99.90;;;;;;5087733;28;20206;-80
2022/03/03 08:43:33;;;;;;;24.95;3.40;;;22.40;99.90;;;;;;5094487;28;20184;-79
2022/03/03 08:46:07;;;;;;;21.58;2.90;;;22.30;99.90;;;;;;5091104;28;20184;-82
2022/03/03 08:48:38;;;;;;;20.10;2.85;;;22.30;99.90;;;;;;5094618;28;20198;-80
2022/03/03 08:51:08;;;;;;;19.23;3.30;;;22.30;99.90;;;;;;5094754;28;20189;-79
2022/03/03 08:53:39;;;;;;;16.42;2.70;;;22.20;99.90;;;;;;5094262;28;20543;-80
2022/03/03 08:56:12;;;;;;;19.80;2.70;;;22.20;99.90;;;;;;5094533;28;20188;-78
2022/03/03 08:58:42;;;;;;;12.93;2.20;;;22.20;99.90;;;;;;5094521;28;20211;-77
2022/03/03 09:01:13;;;;;;;17.60;2.40;;;22.10;99.90;;;;;;5094361;28;20240;-79
2022/03/03 09:03:44;;;;;;;14.65;2.45;;;22.10;99.90;;;;;;5093246;28;20636;-78
2022/03/03 09:06:17;;;;;;;11.35;2.30;;;22.10;99.90;;;;;;5094399;28;20246;-78
2022/03/03 09:08:48;;;;;;;12.02;2.30;;;22.00;99.90;;;;;;5094417;28;20595;-83
2022/03/03 09:11:21;;;;;;;13.48;2.00;;;22.00;99.90;;;;;;5094346;28;20192;-79
2022/03/03 09:13:51;;;;;;;14.48;2.50;;;22.00;99.90;;;;;;5093868;28;20196;-81
2022/03/03 09:16:22;;;;;;;13.88;2.53;;;22.00;99.90;;;;;;5094422;28;20197;-79
2022/03/03 09:18:53;;;;;;;18.30;2.88;;;22.00;99.90;;;;;;5093212;28;20551;-78
2022/03/03 09:21:24;;;;;;;21.30;2.72;;;22.00;99.90;;;;;;5094425;28;20632;-79
2022/03/03 09:23:54;;;;;;;19.48;3.20;;;22.00;99.90;;;;;;5094318;28;20189;-78
2022/03/03 09:26:27;;;;;;;21.95;3.72;;;22.10;99.90;;;;;;5094334;28;20196;-82
2022/03/03 09:28:58;;;;;;;14.73;2.70;;;22.10;99.90;;;;;;5093999;28;20683;-81
2022/03/03 09:31:29;;;;;;;19.75;3.30;;;22.10;99.90;;;;;;5091357;28;20668;-79
2022/03/03 09:33:59;;;;;;;23.48;3.30;;;22.10;99.90;;;;;;5092877;28;20226;-81
2022/03/03 09:36:30;;;;;;;23.00;3.60;;;22.10;99.90;;;;;;5093041;28;20224;-79
2022/03/03 09:39:01;;;;;;;20.17;3.10;;;22.10;99.90;;;;;;5090123;28;20555;-80
2022/03/03 09:41:33;;;;;;;22.73;3.22;;;22.10;99.90;;;;;;5093772;28;20188;-78
2022/03/03 09:44:04;;;;;;;20.23;3.05;;;22.10;99.90;;;;;;5090252;28;20192;-79
2022/03/03 09:46:37;;;;;;;22.77;3.10;;;22.10;99.90;;;;;;5093594;28;20188;-78
2022/03/03 09:49:08;;;;;;;12.75;2.45;;;22.10;99.90;;;;;;5090914;28;20224;-80
2022/03/03 09:51:39;;;;;;;8.63;1.60;;;22.10;99.90;;;;;;5093091;28;20191;-83
2022/03/03 09:54:10;;;;;;;12.25;1.70;;;22.00;99.90;;;;;;5093539;28;20196;-83
2022/03/03 09:56:42;;;;;;;13.02;1.90;;;21.90;99.90;;;;;;5093080;28;20262;-81
2022/03/03 09:59:13;;;;;;;11.95;1.80;;;21.90;99.90;;;;;;5093442;28;20265;-79
2022/03/03 10:01:44;;;;;;;12.75;2.15;;;21.90;99.90;;;;;;5093576;28;20561;-83
2022/03/03 10:04:20;;;;;;;13.48;2.17;;;21.90;99.90;;;;;;5093491;28;20199;-81
2022/03/03 10:06:52;;;;;;;19.33;2.90;;;21.90;99.90;;;;;;5073661;28;20220;-80
2022/03/03 10:09:22;;;;;;;15.23;2.33;;;21.90;99.90;;;;;;5081133;28;20196;-82
2022/03/03 10:12:08;;;;;;;16.80;2.33;;;21.90;99.90;;;;;;5093310;28;20192;-80
2022/03/03 10:14:40;;;;;;;15.95;1.92;;;21.80;99.90;;;;;;5093433;28;20663;-81
2022/03/03 10:17:11;;;;;;;11.88;2.10;;;21.70;99.90;;;;;;5093526;28;20711;-82
2022/03/03 10:19:54;;;;;;;15.05;2.38;;;21.80;99.90;;;;;;5093193;28;20228;-82
2022/03/03 10:22:41;;;;;;;11.68;2.03;;;21.70;99.90;;;;;;5093420;28;20606;-81
2022/03/03 10:25:14;;;;;;;17.45;2.78;;;21.70;99.90;;;;;;5093371;28;20195;-85
2022/03/03 10:27:49;;;;;;;19.02;2.10;;;21.70;99.90;;;;;;5092840;28;20196;-86
2022/03/03 10:30:20;;;;;;;14.38;2.65;;;21.70;99.90;;;;;;5093388;28;20227;-84
2022/03/03 10:32:50;;;;;;;20.83;2.83;;;21.70;99.90;;;;;;5092925;28;20216;-81
2022/03/03 10:35:24;;;;;;;21.38;3.72;;;21.80;99.90;;;;;;5092963;28;21626;-79
2022/03/03 10:38:07;;;;;;;20.58;3.10;;;21.80;99.90;;;;;;5093141;28;20208;-81
2022/03/03 10:40:40;;;;;;;15.52;2.40;;;21.80;99.90;;;;;;5092927;28;20192;-80
2022/03/03 10:43:13;;;;;;;13.35;2.25;;;21.80;99.90;;;;;;5093314;28;20268;-82
2022/03/03 10:45:57;;;;;;;15.95;2.28;;;21.80;99.90;;;;;;5093066;28;20196;-79
2022/03/03 10:48:29;;;;;;;17.42;2.35;;;21.70;99.90;;;;;;5092092;28;20188;-89
2022/03/03 10:51:00;;;;;;;16.02;2.38;;;21.70;99.90;;;;;;5081460;28;20200;-79
2022/03/03 10:53:31;;;;;;;20.50;2.42;;;21.60;99.90;;;;;;5093340;28;20557;-79
2022/03/03 10:56:06;;;;;;;17.73;2.55;;;21.60;99.90;;;;;;5092927;28;20192;-78
2022/03/03 10:58:57;;;;;;;18.52;2.50;;;21.60;99.90;;;;;;5093130;28;20290;-85
2022/03/03 11:01:30;;;;;;;20.98;2.65;;;21.60;99.90;;;;;;5093484;28;20194;-78
2022/03/03 11:04:01;;;;;;;22.13;2.67;;;21.60;99.90;;;;;;5093151;28;20189;-83
2022/03/03 11:06:33;;;;;;;25.42;3.40;;;21.60;99.90;;;;;;5093192;28;20257;-81
2022/03/03 11:09:05;;;;;;;17.75;3.05;;;21.60;99.90;;;;;;5093185;28;20239;-79
2022/03/03 11:11:35;;;;;;;22.63;3.50;;;21.70;99.90;;;;;;5092855;28;20664;-78
2022/03/03 11:14:08;;;;;;;22.50;3.50;;;21.70;99.90;;;;;;5092972;28;20188;-78
2022/03/03 11:16:41;;;;;;;25.45;3.90;;;21.70;99.90;;;;;;5093416;28;20188;-79
2022/03/03 11:19:14;;;;;;;27.55;2.97;;;21.70;99.90;;;;;;5093106;28;20212;-79
2022/03/03 11:21:44;;;;;;;21.85;3.45;;;21.70;99.90;;;;;;5093399;28;20546;-83
2022/03/03 11:24:19;;;;;;;29.98;3.53;;;21.80;99.90;;;;;;5092814;28;20636;-77
2022/03/03 11:26:51;;;;;;;21.48;3.17;;;21.80;99.90;;;;;;5093584;28;20191;-79
2022/03/03 11:29:24;;;;;;;24.23;3.20;;;21.80;99.90;;;;;;5097125;28;20235;-79
2022/03/03 11:32:04;;;;;;;30.13;3.45;;;21.80;99.90;;;;;;5096365;28;20220;-78
2022/03/03 11:34:49;;;;;;;24.38;3.63;;;21.80;99.90;;;;;;5086162;28;20192;-77
2022/03/03 11:37:22;;;;;;;21.55;3.05;;;21.90;99.90;;;;;;5096655;28;20239;-77
2022/03/03 11:39:58;;;;;;;23.65;3.78;;;21.90;99.90;;;;;;5075953;28;20684;-78
2022/03/03 11:42:31;;;;;;;27.20;3.67;;;21.90;99.90;;;;;;5076199;28;20189;-80
2022/03/03 11:45:18;;;;;;;29.35;3.78;;;21.90;99.90;;;;;;5076383;28;20195;-79
2022/03/03 11:47:50;;;;;;;32.38;3.78;;;21.90;99.90;;;;;;5076179;28;20189;-79
2022/03/03 11:50:25;;;;;;;23.42;2.97;;;22.00;99.90;;;;;;5081893;28;20709;-78
2022/03/03 11:53:18;;;;;;;23.83;3.25;;;22.00;99.90;;;;;;5096094;28;20227;-78
2022/03/03 11:55:52;;;;;;;22.52;3.20;;;22.10;99.90;;;;;;5096093;28;20185;-80
2022/03/03 11:58:27;;;;;;;29.77;4.15;;;22.20;99.90;;;;;;5096001;28;20230;-78
2022/03/03 12:01:14;;;;;;;22.33;2.80;;;22.20;99.90;;;;;;5096182;28;20188;-77
2022/03/03 12:04:16;;;;;;;24.45;3.30;;;22.20;99.90;;;;;;5096155;28;20192;-79
2022/03/03 12:06:48;;;;;;;20.60;3.00;;;22.20;99.90;;;;;;5063203;28;20238;-81
2022/03/03 12:09:25;;;;;;;26.58;3.47;;;22.20;99.90;;;;;;5095852;28;20558;-78
2022/03/03 12:12:10;;;;;;;27.23;3.22;;;22.20;99.90;;;;;;5095938;28;20554;-78
2022/03/03 12:14:42;;;;;;;23.95;3.28;;;22.20;99.90;;;;;;5095744;28;20192;-80
2022/03/03 12:17:46;;;;;;;28.58;3.72;;;22.20;99.90;;;;;;5095874;28;20188;-79
2022/03/03 12:20:37;;;;;;;20.63;3.67;;;22.10;99.90;;;;;;5095526;28;20269;-77
2022/03/03 12:23:13;;;;;;;29.83;3.35;;;22.10;99.90;;;;;;5095484;28;20195;-79
2022/03/03 12:26:04;;;;;;;26.08;3.65;;;22.10;99.90;;;;;;5095723;28;20773;-78
2022/03/03 12:28:46;;;;;;;31.15;3.83;;;22.10;99.90;;;;;;5075444;28;20236;-78
2022/03/03 12:31:25;;;;;;;28.50;4.43;;;22.10;99.90;;;;;;5075359;28;20236;-77
2022/03/03 12:34:03;;;;;;;24.23;3.60;;;22.10;99.90;;;;;;5094819;28;20192;-78
2022/03/03 12:36:36;;;;;;;25.23;3.70;;;22.10;99.90;;;;;;5094909;28;20730;-77
2022/03/03 12:39:08;;;;;;;31.77;4.30;;;22.10;99.90;;;;;;5095309;28;20555;-78
2022/03/03 12:41:40;;;;;;;22.48;3.22;;;22.10;99.90;;;;;;5095272;28;20271;-78
2022/03/03 12:44:12;;;;;;;23.83;3.45;;;22.10;99.90;;;;;;5095153;28;20192;-77
2022/03/03 12:46:44;;;;;;;36.45;4.50;;;22.10;99.90;;;;;;5095253;28;20223;-78
2022/03/03 12:49:17;;;;;;;30.17;4.10;;;22.10;99.90;;;;;;5095252;28;20188;-77
2022/03/03 12:51:49;;;;;;;31.73;3.63;;;22.10;99.90;;;;;;5094880;28;20242;-80
2022/03/03 12:54:22;;;;;;;25.20;3.70;;;22.10;99.90;;;;;;5095164;28;20642;-78
2022/03/03 12:57:03;;;;;;;22.13;3.63;;;22.10;99.90;;;;;;5094931;28;20232;-77
2022/03/03 12:59:34;;;;;;;29.45;4.18;;;22.10;99.90;;;;;;5094865;28;20638;-78
2022/03/03 13:02:05;;;;;;;18.30;2.67;;;22.10;99.90;;;;;;5094809;28;20196;-79
2022/03/03 13:04:48;;;;;;;23.23;3.13;;;22.10;99.90;;;;;;5094914;28;20191;-79
2022/03/03 13:07:21;;;;;;;24.20;2.90;;;22.00;99.90;;;;;;5094699;28;20212;-78